Meteo Giornale » Osservazioni meteo Stati Uniti (USA) » Corvallis
ore: 07:56 - Osservazioni Meteo Corvallis
Lat. 44° 30' N Lon. 123° 17' W Alt. 75 metri s.l.m.
14 °C
Coperto
Temp. 24 Ore
12 °C
29 °C
Nord
5.5 Km/h
Dew point 12 °C
Umidità 87 %
Visibilità 14 Km
Il sole sorge alle ore 06:36
Il sole tramonta alle ore 19:49
| Data e Ora | Cielo e Fenomeni | T °C | DP °C | Um. % | Pres. hPa | Vis. km | Vento km/h | |
|---|---|---|---|---|---|---|---|---|
| Oggi h: 07:56 | Coperto | 14 | 12 | 87 | 1012 | 14 | N 5.5 | |
| Oggi h: 06:56 | Coperto | 14 | 12 | 87 | 1012 | 10 | N 0 | |
| Oggi h: 05:56 | Coperto | 14 | 12 | 87 | 1012 | 10 | N 0 | |
| Oggi h: 05:20 | Coperto | 14 | 12 | 87 | 1012 | 10 | N 0 | |
| Oggi h: 05:09 | Coperto | 14 | 12 | 87 | 1012 | 10 | N 0 | |
| Oggi h: 04:56 | Coperto | 14 | 12 | 87 | 1012 | 10 | N 0 | |
| Oggi h: 03:56 | Coperto | 13 | 11 | 87 | 1011 | 10 | S/SE 7.4 | |
| Oggi h: 02:56 | Coperto | 13 | 11 | 87 | 1011 | 10 | N 5.5 | |
| Oggi h: 02:25 | Molto Nuvoloso | 12 | 11 | 93 | 1012 | 10 | N 0 | |
| Oggi h: 02:16 | Nuvoloso | 12 | 11 | 93 | 1012 | 10 | N 5.5 | |
| Oggi h: 02:09 | Molto Nuvoloso | 12 | 11 | 93 | 1012 | 10 | SO 7.4 | |
| Oggi h: 01:56 | Nuvoloso | 13 | 11 | 87 | 1012 | 10 | O/SO 13 | |
| Oggi h: 01:22 | Molto Nuvoloso | 12 | 11 | 93 | 1011 | 10 | S/SE 7.4 | |
| Oggi h: 00:56 | Sereno | 13 | 11 | 87 | 1011 | 10 | N 0 | |
| Ieri h: 23:56 | Sereno | 14 | 11 | 82 | 1011 | 10 | N 0 | |
| Ieri h: 22:56 | Sereno | 15 | 12 | 82 | 1011 | 10 | NO 13 | |
| Ieri h: 21:56 | Sereno | 16 | 11 | 72 | 1010 | 10 | O/NO 14.8 | |
| Ieri h: 20:56 | Sereno | 16 | 12 | 77 | 1010 | 10 | O 18.5 | |
| Ieri h: 19:56 | Sereno | 18 | 12 | 67 | 1009 | 10 | O/NO 27.8 | |
| Ieri h: 18:56 | Sereno | 21 | 12 | 56 | 1008 | 10 | O/NO 27.8 | |
| Ieri h: 17:56 | Sereno | 24 | 12 | 47 | 1008 | 10 | NO 25.9 | |
| Ieri h: 17:15 | Poco Nuvoloso | 27 | 12 | 39 | 1007 | 10 | NO 31.5 | |
| Ieri h: 16:56 | Sereno | 27 | 12 | 39 | 1008 | 10 | NO 25.9 | |
| Ieri h: 16:32 | Sereno | 29 | 13 | 37 | 1007 | 10 | NO 24 | |
| Ieri h: 15:56 | Foschia | 29 | 12 | 35 | 1008 | 10 | N 7.4 | |
| Ieri h: 14:56 | Sereno | 28 | 12 | 37 | 1008 | 11 | S/SE 7.4 | |
| Ieri h: 13:56 | Sereno | 27 | 12 | 39 | 1009 | 10 | N 0 | |
| Ieri h: 12:56 | Sereno | 24 | 12 | 47 | 1009 | 10 | N 0 | |
| Ieri h: 11:56 | Sereno | 23 | 12 | 49 | 1010 | 10 | N 5.5 | |
| Ieri h: 10:56 | Sereno | 19 | 11 | 59 | 1011 | 10 | N 5.5 | |
| Ieri h: 09:56 | Sereno | 18 | 11 | 63 | 1011 | 10 | N 7.4 | |
| Ieri h: 08:56 | Sereno | 15 | 11 | 76 | 1012 | 10 | N 0 | |



